Woodsville, New Hampshire
Current Conditions -  °F | °C
As of 9:51 PM on Saturday 25 Oct 2014 (Local Time) from KMPV Reporting Station
Broken Clouds Broken Clouds  
Wind Chill: 47°   Ceiling: 5500
Heat Index: 49°   Visibility: 10mi
Dew Point: 46°   Wind: 5mph
Humidity: 90%   Direction: 210°SSW
Pressure: 29.5"   Gusts: NA
Location:  44.15°N, 72.04°W
Report Text: KMPV 260151Z AUTO 21004KT 10SM FEW031 SCT043 BKN055 09/08 A2950 RMK AO2 RAE34 SLP996 P0005 T00940078 $
Loading
Personal Weather Stations






























Interactive Weather Map
Tropical Storm Tracking
New forecast layout! Learn more

10-Day Weather Forecast

Advertisements
Track Severe Weather on mobile